Aktuelles Wetter in Potsdam (Telegrafenberg, 81m)

Tag Datum Stunde Luftdruck Temperatur Luftfeuchte Niederschlag Windrichtung Windgeschw. Windspitzen Wolken
hPa °C % mm ° km/h km/h
Samstag, 27.05.2017, 02:00 1022.7 14.0 88 0.0 O 14 17 wolkenlos
Samstag, 27.05.2017, 01:30 1022.6 14.4 85 0.0 O 14 17 wolkenlos
Samstag, 27.05.2017, 01:00 1022.5 14.6 84 0.0 O 13 17 wolkenlos
Samstag, 27.05.2017, 00:30 1022.4 14.7 82 0.0 NO 13 17 wolkenlos
Samstag, 27.05.2017, 00:00 1022.2 15.2 80 0.0 NO 12 16 wolkenlos
Freitag, 26.05.2017, 23:30 1022.1 15.4 78 0.0 NO 11 16 wolkenlos
Freitag, 26.05.2017, 23:00 1021.8 16.1 76 0.0 NO 11 15 wolkenlos
Freitag, 26.05.2017, 22:30 1021.5 16.6 73 0.0 NO 9 14 wolkenlos
Freitag, 26.05.2017, 22:00 1021.2 17.4 68 0.0 NO 9 14 gering bewölkt
Freitag, 26.05.2017, 21:30 1020.9 18.3 64 0.0 N 8 14 gering bewölkt
Freitag, 26.05.2017, 21:00 1020.5 19.5 59 0.0 N 6 19 heiter
Freitag, 26.05.2017, 20:30 1020.4 20.6 55 0.0 N 10 19 heiter
Freitag, 26.05.2017, 20:00 1020.3 21.2 12.6 24.9 52 0.0 0 ---
Freitag, 26.05.2017, 19:30 1020.2 22.2 49 0.0 NO 9 20 heiter
Freitag, 26.05.2017, 19:00 1020.0 23.2 45 0.0 N 12 24 heiter
Freitag, 26.05.2017, 18:30 1019.9 23.9 43 0.0 N 13 24 heiter
Freitag, 26.05.2017, 18:00 1019.9 24.6 44 0.0 N 9 22 heiter
Freitag, 26.05.2017, 17:30 1020.1 23.1 49 0.0 N 11 22 heiter
Freitag, 26.05.2017, 17:00 1020.1 24.7 47 0.0 NW 10 22 heiter
Freitag, 26.05.2017, 16:30 1020.3 24.2 47 0.0 NW 8 20 heiter
Freitag, 26.05.2017, 16:00 1020.5 24.0 48 0.0 NW 12 26 heiter